createdAt,value
2023-05-12T00:01:31.151Z,99482.53
2023-05-12T00:03:57.859Z,99480.84
2023-05-12T00:06:24.597Z,99482.00
2023-05-12T00:08:51.081Z,99480.63
2023-05-12T00:11:17.763Z,99479.53
2023-05-12T00:13:44.430Z,99479.75
2023-05-12T00:16:11.200Z,99476.88
2023-05-12T00:18:37.830Z,99474.84
2023-05-12T00:21:04.768Z,99480.22
2023-05-12T00:23:31.285Z,99481.34
2023-05-12T00:25:57.808Z,99470.22
2023-05-12T00:28:24.408Z,99474.75
2023-05-12T00:30:50.924Z,99475.97
2023-05-12T00:33:18.597Z,99473.78
2023-05-12T00:35:48.049Z,99476.13
2023-05-12T00:38:14.572Z,99474.69
2023-05-12T00:40:41.406Z,99470.50
2023-05-12T00:43:08.709Z,99476.50
2023-05-12T00:45:35.456Z,99471.56
2023-05-12T00:48:02.370Z,99471.56
2023-05-12T00:50:29.005Z,99457.16
2023-05-12T00:52:55.585Z,99459.81
2023-05-12T00:55:22.116Z,99462.72
2023-05-12T00:57:48.681Z,99456.56
2023-05-12T01:03:01.811Z,99450.78
2023-05-12T01:05:36.136Z,99454.09
2023-05-12T01:08:03.553Z,99449.31
2023-05-12T01:10:30.053Z,99444.63
2023-05-12T01:12:56.578Z,99444.84
2023-05-12T01:15:23.322Z,99437.41
2023-05-12T01:17:57.093Z,99443.66
2023-05-12T01:20:26.443Z,99437.41
2023-05-12T01:22:54.688Z,99437.59
2023-05-12T01:25:24.050Z,99439.91
2023-05-12T01:27:50.788Z,99438.16
2023-05-12T01:30:21.796Z,99441.19
2023-05-12T01:32:48.941Z,99432.69
2023-05-12T01:35:15.566Z,99434.09
2023-05-12T01:37:42.158Z,99429.50
2023-05-12T01:40:09.204Z,99429.53
2023-05-12T01:42:35.786Z,99427.66
2023-05-12T01:45:02.311Z,99427.75
2023-05-12T01:47:28.937Z,99425.63
2023-05-12T01:49:55.453Z,99431.16
2023-05-12T01:52:21.988Z,99420.31
2023-05-12T01:54:48.602Z,99427.31
2023-05-12T01:57:16.341Z,99423.78
2023-05-12T01:59:42.927Z,99427.91
2023-05-12T02:02:09.584Z,99423.84
2023-05-12T02:04:36.331Z,99420.19
2023-05-12T02:07:07.803Z,99418.00
2023-05-12T02:09:34.387Z,99419.19
2023-05-12T02:12:02.192Z,99424.19
2023-05-12T02:14:28.724Z,99420.31
2023-05-12T02:16:55.677Z,99418.72
2023-05-12T02:19:22.348Z,99416.69
2023-05-12T02:21:48.937Z,99413.28
2023-05-12T02:24:16.648Z,99405.25
2023-05-12T02:26:43.321Z,99404.09
2023-05-12T02:29:10.963Z,99397.50
2023-05-12T02:31:37.626Z,99402.03
2023-05-12T02:34:06.488Z,99402.03
2023-05-12T02:36:34.497Z,99402.34
2023-05-12T02:39:01.164Z,99408.16
2023-05-12T02:41:27.707Z,99411.38
2023-05-12T02:43:54.308Z,99398.47
2023-05-12T02:46:20.902Z,99408.03
2023-05-12T02:48:47.490Z,99407.97
2023-05-12T02:51:14.069Z,99404.22
2023-05-12T02:53:40.634Z,99407.00
2023-05-12T02:56:07.676Z,99409.06
2023-05-12T02:58:34.761Z,99397.47
2023-05-12T03:01:09.912Z,99405.13
2023-05-12T03:03:38.284Z,99395.97
2023-05-12T03:06:05.520Z,99386.81
2023-05-12T03:08:32.115Z,99391.34
2023-05-12T03:10:58.820Z,99391.81
2023-05-12T03:13:25.327Z,99395.59
2023-05-12T03:15:51.840Z,99393.44
2023-05-12T03:18:18.503Z,99383.28
2023-05-12T03:20:45.145Z,99393.84
2023-05-12T03:23:12.055Z,99391.94
2023-05-12T03:25:38.627Z,99392.22
2023-05-12T03:28:05.916Z,99398.38
2023-05-12T03:30:33.269Z,99400.53
2023-05-12T03:33:00.029Z,99387.56
2023-05-12T03:35:26.973Z,99380.94
2023-05-12T03:37:53.615Z,99390.47
2023-05-12T03:40:20.517Z,99383.88
2023-05-12T03:42:47.304Z,99383.59
2023-05-12T03:45:13.965Z,99386.19
2023-05-12T03:47:40.955Z,99389.44
2023-05-12T03:50:08.273Z,99385.63
2023-05-12T03:52:34.935Z,99375.63
2023-05-12T03:55:01.481Z,99378.56
2023-05-12T03:57:27.995Z,99378.34
2023-05-12T03:59:55.069Z,99388.69
2023-05-12T04:02:21.717Z,99383.56
2023-05-12T04:04:48.263Z,99383.88
2023-05-12T04:07:15.270Z,99384.31
2023-05-12T04:09:41.805Z,99379.28
2023-05-12T04:12:08.349Z,99383.44
2023-05-12T04:14:42.130Z,99383.59
2023-05-12T04:17:09.544Z,99374.81
2023-05-12T04:19:36.119Z,99384.59
2023-05-12T04:22:02.608Z,99381.09
2023-05-12T04:24:29.116Z,99379.59
2023-05-12T04:26:57.603Z,99372.88
2023-05-12T04:29:24.107Z,99383.88
2023-05-12T04:31:50.856Z,99379.78
2023-05-12T04:34:17.465Z,99384.59
2023-05-12T04:36:43.955Z,99382.56
2023-05-12T04:39:10.463Z,99385.41
2023-05-12T04:41:37.041Z,99380.81
2023-05-12T04:44:03.683Z,99383.25
2023-05-12T04:46:30.286Z,99376.38
2023-05-12T04:48:57.069Z,99383.88
2023-05-12T04:51:23.625Z,99386.97
2023-05-12T04:53:50.143Z,99384.59
2023-05-12T04:56:16.953Z,99391.19
2023-05-12T04:58:43.703Z,99395.75
2023-05-12T05:01:12.314Z,99394.59
2023-05-12T05:03:39.961Z,99386.94
2023-05-12T05:06:06.817Z,99397.78
2023-05-12T05:08:33.476Z,99398.75
2023-05-12T05:11:00.077Z,99403.91
2023-05-12T05:13:26.607Z,99402.78
2023-05-12T05:15:54.573Z,99401.13
2023-05-12T05:18:24.007Z,99405.25
2023-05-12T05:20:57.951Z,99404.03
2023-05-12T05:23:26.061Z,99406.19
2023-05-12T05:25:52.753Z,99411.34
2023-05-12T05:28:19.332Z,99409.78
2023-05-12T05:30:45.983Z,99416.81
2023-05-12T05:33:13.354Z,99421.81
2023-05-12T05:35:40.340Z,99421.81
2023-05-12T05:38:06.927Z,99420.03
2023-05-12T05:40:44.985Z,99420.50
2023-05-12T05:43:18.631Z,99417.91
2023-05-12T05:45:45.211Z,99414.47
2023-05-12T05:48:12.263Z,99419.06
2023-05-12T05:50:38.918Z,99413.72
2023-05-12T05:53:06.158Z,99417.25
2023-05-12T05:55:32.682Z,99420.91
2023-05-12T05:57:59.513Z,99420.03
2023-05-12T06:00:26.054Z,99413.56
2023-05-12T06:02:52.797Z,99420.97
2023-05-12T06:05:22.293Z,99416.88
2023-05-12T06:07:49.022Z,99423.50
2023-05-12T06:10:15.786Z,99427.44
2023-05-12T06:12:43.245Z,99431.31
2023-05-12T06:15:10.456Z,99429.56
2023-05-12T06:17:37.064Z,99425.22
2023-05-12T06:20:05.314Z,99429.00
2023-05-12T06:22:31.933Z,99431.53
2023-05-12T06:24:58.480Z,99434.41
2023-05-12T06:27:25.068Z,99441.81
2023-05-12T06:29:52.051Z,99430.16
2023-05-12T06:32:19.255Z,99433.22
2023-05-12T06:34:45.810Z,99434.53
2023-05-12T06:37:12.409Z,99429.22
2023-05-12T06:39:38.963Z,99433.31
2023-05-12T06:42:05.763Z,99439.53
2023-05-12T06:44:32.253Z,99435.78
2023-05-12T06:46:58.996Z,99432.41
2023-05-12T06:49:25.583Z,99438.00
2023-05-12T06:51:52.088Z,99434.38
2023-05-12T06:54:18.610Z,99442.44
2023-05-12T06:56:45.155Z,99433.13
2023-05-12T06:59:12.625Z,99443.25
2023-05-12T07:01:39.203Z,99441.47
2023-05-12T07:04:05.947Z,99432.19
2023-05-12T07:06:34.502Z,99444.16
2023-05-12T07:09:01.113Z,99437.41
2023-05-12T07:11:28.245Z,99442.44
2023-05-12T07:13:54.863Z,99443.09
2023-05-12T07:16:21.534Z,99449.28
2023-05-12T07:18:48.452Z,99444.56
2023-05-12T07:21:15.699Z,99440.28
2023-05-12T07:23:42.923Z,99441.81
2023-05-12T07:26:09.773Z,99448.03
2023-05-12T07:28:36.708Z,99444.97
2023-05-12T07:31:04.304Z,99447.59
2023-05-12T07:33:31.559Z,99448.09
2023-05-12T07:35:58.245Z,99447.59
2023-05-12T07:38:24.787Z,99441.75
2023-05-12T07:40:51.471Z,99444.66
2023-05-12T07:43:18.075Z,99439.50
2023-05-12T07:45:45.482Z,99443.28
2023-05-12T07:48:12.391Z,99440.78
2023-05-12T07:50:39.441Z,99444.72
2023-05-12T07:53:06.228Z,99440.69
2023-05-12T07:55:36.280Z,99430.69
2023-05-12T07:58:02.817Z,99434.97
2023-05-12T08:00:29.343Z,99441.03
2023-05-12T08:02:56.172Z,99437.75
2023-05-12T08:05:22.768Z,99430.31
2023-05-12T08:07:49.344Z,99430.91
2023-05-12T08:10:15.995Z,99434.13
2023-05-12T08:12:43.060Z,99427.38
2023-05-12T08:15:09.921Z,99428.00
2023-05-12T08:17:36.614Z,99422.44
2023-05-12T08:20:04.513Z,99416.47
2023-05-12T08:22:31.558Z,99422.47
2023-05-12T08:24:59.672Z,99416.91
2023-05-12T08:27:26.340Z,99415.16
2023-05-12T08:29:52.918Z,99415.66
2023-05-12T08:32:19.533Z,99420.41
2023-05-12T08:34:46.207Z,99415.66
2023-05-12T08:37:12.761Z,99422.81
2023-05-12T08:39:39.401Z,99418.06
2023-05-12T08:42:27.274Z,99419.91
2023-05-12T08:44:54.376Z,99413.19
2023-05-12T08:47:23.006Z,99421.84
2023-05-12T08:50:00.856Z,99421.47
2023-05-12T08:52:33.030Z,99424.78
2023-05-12T08:55:01.070Z,99418.38
2023-05-12T08:57:29.679Z,99424.69
2023-05-12T08:59:58.909Z,99419.00
2023-05-12T09:02:32.740Z,99422.63
2023-05-12T09:05:04.725Z,99423.97
2023-05-12T09:07:31.455Z,99423.97
2023-05-12T09:10:00.604Z,99421.59
2023-05-12T09:12:32.184Z,99411.09
2023-05-12T09:15:05.316Z,99429.03
2023-05-12T09:17:32.102Z,99418.81
2023-05-12T09:19:58.658Z,99413.31
2023-05-12T09:22:30.116Z,99408.97
2023-05-12T09:24:56.764Z,99406.81
2023-05-12T09:27:29.146Z,99409.28
2023-05-12T09:29:59.605Z,99403.50
2023-05-12T09:32:32.076Z,99408.53
2023-05-12T09:35:03.927Z,99412.56
2023-05-12T09:37:32.479Z,99407.94
2023-05-12T09:40:00.781Z,99409.78
2023-05-12T09:42:29.830Z,99400.34
2023-05-12T09:45:10.015Z,99406.63
2023-05-12T09:47:38.405Z,99409.78
2023-05-12T09:50:06.620Z,99397.69
2023-05-12T09:52:39.899Z,99405.97
2023-05-12T09:55:08.743Z,99388.91
2023-05-12T09:57:40.869Z,99402.44
2023-05-12T10:00:31.335Z,99399.56
2023-05-12T10:03:01.496Z,99412.25
2023-05-12T10:05:29.419Z,99388.84
2023-05-12T10:07:59.054Z,99388.59
2023-05-12T10:10:26.598Z,99385.13
2023-05-12T10:12:53.304Z,99387.59
2023-05-12T10:15:21.237Z,99376.28
2023-05-12T10:17:50.925Z,99377.63
2023-05-12T10:20:19.156Z,99379.94
2023-05-12T10:22:48.936Z,99401.19
2023-05-12T10:25:17.925Z,99379.59
2023-05-12T10:27:44.922Z,99381.88
2023-05-12T10:30:12.446Z,99374.31
2023-05-12T10:32:38.997Z,99376.28
2023-05-12T10:35:13.164Z,99377.44
2023-05-12T10:37:39.774Z,99366.13
2023-05-12T10:40:07.145Z,99361.44
2023-05-12T10:42:41.761Z,99367.50
2023-05-12T10:45:19.938Z,99369.31
2023-05-12T10:47:47.803Z,99363.19
2023-05-12T10:50:14.626Z,99363.69
2023-05-12T10:52:52.536Z,99355.84
2023-05-12T10:55:29.855Z,99349.50
2023-05-12T10:58:05.189Z,99359.22
2023-05-12T11:00:33.060Z,99354.31
2023-05-12T11:03:08.140Z,99361.91
2023-05-12T11:05:55.780Z,99347.78
2023-05-12T11:08:23.396Z,99349.84
2023-05-12T11:10:51.302Z,99362.72
2023-05-12T11:13:19.262Z,99359.59
2023-05-12T11:15:46.760Z,99356.19
2023-05-12T11:18:13.519Z,99350.03
2023-05-12T11:20:40.244Z,99353.22
2023-05-12T11:23:06.904Z,99348.13
2023-05-12T11:25:33.892Z,99350.75
2023-05-12T11:28:01.553Z,99346.78
2023-05-12T11:30:28.356Z,99347.88
2023-05-12T11:33:02.280Z,99343.38
2023-05-12T11:35:32.544Z,99335.59
2023-05-12T11:37:59.139Z,99340.66
2023-05-12T11:40:25.702Z,99337.59
2023-05-12T11:42:54.046Z,99338.03
2023-05-12T11:45:30.687Z,99329.59
2023-05-12T11:48:13.956Z,99323.72
2023-05-12T11:50:42.451Z,99322.00
2023-05-12T11:53:15.127Z,99330.78
2023-05-12T11:55:52.997Z,99325.78
2023-05-12T11:58:27.259Z,99321.59
2023-05-12T12:00:54.280Z,99313.22
2023-05-12T12:03:21.431Z,99323.88
2023-05-12T12:06:02.861Z,99321.34
2023-05-12T12:08:29.962Z,99308.34
2023-05-12T12:10:56.628Z,99306.88
2023-05-12T12:13:24.837Z,99298.19
2023-05-12T12:15:52.268Z,99304.00
2023-05-12T12:18:19.270Z,99317.28
2023-05-12T12:20:47.259Z,99317.34
2023-05-12T12:23:13.786Z,99305.78
2023-05-12T12:25:40.288Z,99302.13
2023-05-12T12:28:06.852Z,99293.25
2023-05-12T12:30:34.014Z,99292.56
2023-05-12T12:33:00.794Z,99293.09
2023-05-12T12:35:27.418Z,99294.19
2023-05-12T12:37:54.055Z,99284.47
2023-05-12T12:40:20.574Z,99279.34
2023-05-12T12:42:47.434Z,99276.34
2023-05-12T12:45:14.049Z,99276.53
2023-05-12T12:47:40.729Z,99267.06
2023-05-12T12:50:10.652Z,99274.53
2023-05-12T12:52:38.540Z,99270.25
2023-05-12T12:55:06.888Z,99273.53
2023-05-12T12:57:33.505Z,99255.81
2023-05-12T13:00:00.127Z,99260.28
2023-05-12T13:02:27.165Z,99275.41
2023-05-12T13:04:53.850Z,99263.66
2023-05-12T13:07:20.890Z,99290.63
2023-05-12T13:09:47.739Z,99315.63
2023-05-12T13:12:14.788Z,99309.56
2023-05-12T13:14:41.309Z,99320.00
2023-05-12T13:17:08.394Z,99349.31
2023-05-12T13:19:37.811Z,99325.75
2023-05-12T13:22:05.013Z,99323.44
2023-05-12T13:24:31.672Z,99323.03
2023-05-12T13:26:58.291Z,99328.88
2023-05-12T13:29:24.806Z,99347.34
2023-05-12T13:31:51.396Z,99335.38
2023-05-12T13:34:17.997Z,99320.22
2023-05-12T13:36:44.563Z,99327.97
2023-05-12T13:39:11.458Z,99325.63
2023-05-12T13:41:38.070Z,99324.00
2023-05-12T13:44:04.643Z,99328.84
2023-05-12T13:46:31.373Z,99330.63
2023-05-12T13:48:57.920Z,99329.63
2023-05-12T13:51:25.793Z,99320.63
2023-05-12T13:53:52.794Z,99318.81
2023-05-12T13:56:19.379Z,99310.91
2023-05-12T13:58:45.989Z,99304.88
2023-05-12T14:01:12.884Z,99300.41
2023-05-12T14:03:40.350Z,99303.59
2023-05-12T14:06:06.959Z,99294.63
2023-05-12T14:08:33.565Z,99313.66
2023-05-12T14:11:00.173Z,99312.34
2023-05-12T14:13:26.768Z,99311.38
2023-05-12T14:15:54.262Z,99301.41
2023-05-12T14:18:22.031Z,99289.78
2023-05-12T14:20:48.683Z,99281.88
2023-05-12T14:23:15.252Z,99287.56
2023-05-12T14:25:41.856Z,99289.69
2023-05-12T14:28:08.787Z,99278.81
2023-05-12T14:30:35.480Z,99286.69
2023-05-12T14:33:02.933Z,99287.03
2023-05-12T14:35:30.146Z,99298.72
2023-05-12T14:37:56.950Z,99300.31
2023-05-12T14:40:24.110Z,99312.56
2023-05-12T14:42:50.827Z,99315.53
2023-05-12T14:45:17.747Z,99312.00
2023-05-12T14:47:44.736Z,99323.63
2023-05-12T14:50:11.602Z,99338.63
2023-05-12T14:52:40.725Z,99349.63
2023-05-12T14:55:11.888Z,99346.84
2023-05-12T14:57:42.427Z,99342.97
2023-05-12T15:00:11.012Z,99345.59
2023-05-12T15:02:38.223Z,99346.09
2023-05-12T15:05:07.205Z,99347.97
2023-05-12T15:07:33.846Z,99347.28
2023-05-12T15:10:01.046Z,99334.59
2023-05-12T15:12:27.751Z,99339.47
2023-05-12T15:14:56.137Z,99344.47
2023-05-12T15:17:22.882Z,99334.72
2023-05-12T15:19:49.667Z,99346.59
2023-05-12T15:22:16.209Z,99349.47
2023-05-12T15:24:43.184Z,99344.13
2023-05-12T15:27:09.736Z,99346.13
2023-05-12T15:29:39.776Z,99342.38
2023-05-12T15:32:07.519Z,99334.09
2023-05-12T15:34:34.945Z,99341.94
2023-05-12T15:37:01.468Z,99337.34
2023-05-12T15:39:28.108Z,99340.81
2023-05-12T15:41:54.700Z,99335.28
2023-05-12T15:44:21.270Z,99342.81
2023-05-12T15:46:47.877Z,99334.44
2023-05-12T15:49:14.590Z,99332.72
2023-05-12T15:51:41.153Z,99336.34
2023-05-12T15:54:09.515Z,99330.47
2023-05-12T15:56:36.683Z,99329.84
2023-05-12T15:59:05.223Z,99326.06
2023-05-12T16:01:31.958Z,99321.50
2023-05-12T16:03:58.751Z,99327.78
2023-05-12T16:06:25.676Z,99321.47
2023-05-12T16:08:53.327Z,99324.50
2023-05-12T16:11:20.056Z,99314.00
2023-05-12T16:13:46.680Z,99316.78
2023-05-12T16:16:13.587Z,99319.91
2023-05-12T16:18:40.317Z,99327.16
2023-05-12T16:21:08.338Z,99315.91
2023-05-12T16:23:35.044Z,99317.41
2023-05-12T16:26:01.580Z,99327.53
2023-05-12T16:28:28.173Z,99327.00
2023-05-12T16:30:54.830Z,99330.03
2023-05-12T16:33:21.535Z,99338.25
2023-05-12T16:35:48.128Z,99333.19
2023-05-12T16:38:14.792Z,99336.63
2023-05-12T16:40:41.476Z,99329.88
2023-05-12T16:43:07.988Z,99340.53
2023-05-12T16:45:34.574Z,99335.41
2023-05-12T16:48:01.151Z,99325.56
2023-05-12T16:50:27.782Z,99331.31
2023-05-12T16:52:54.332Z,99338.53
2023-05-12T16:55:21.463Z,99346.47
2023-05-12T16:57:48.191Z,99343.78
2023-05-12T17:00:16.632Z,99339.31
2023-05-12T17:02:43.195Z,99346.28
2023-05-12T17:05:09.993Z,99335.84
2023-05-12T17:07:36.630Z,99342.47
2023-05-12T17:10:03.536Z,99328.22
2023-05-12T17:12:30.071Z,99326.91
2023-05-12T17:15:06.737Z,99321.72
2023-05-12T17:17:37.801Z,99336.97
2023-05-12T17:20:04.738Z,99330.97
2023-05-12T17:22:32.512Z,99337.03
2023-05-12T17:24:59.048Z,99351.53
2023-05-12T17:27:25.842Z,99348.56
2023-05-12T17:29:52.395Z,99363.41
2023-05-12T17:32:18.928Z,99370.72
2023-05-12T17:34:49.286Z,99353.63
2023-05-12T17:37:15.844Z,99356.31
2023-05-12T17:39:44.388Z,99356.25
2023-05-12T17:42:11.190Z,99355.59
2023-05-12T17:44:37.764Z,99356.75
2023-05-12T17:47:05.021Z,99362.03
2023-05-12T17:49:32.141Z,99359.00
2023-05-12T17:51:58.695Z,99357.75
2023-05-12T17:54:25.283Z,99357.41
2023-05-12T17:56:51.847Z,99360.63
2023-05-12T17:59:18.350Z,99356.44
2023-05-12T18:01:44.885Z,99372.97
2023-05-12T18:04:11.625Z,99368.13
2023-05-12T18:06:38.740Z,99366.16
2023-05-12T18:09:05.444Z,99366.63
2023-05-12T18:11:34.293Z,99375.09
2023-05-12T18:14:05.768Z,99376.69
2023-05-12T18:16:33.432Z,99372.69
2023-05-12T18:19:00.711Z,99369.38
2023-05-12T18:21:27.405Z,99381.88
2023-05-12T18:23:54.379Z,99382.66
2023-05-12T18:26:21.155Z,99387.28
2023-05-12T18:28:47.850Z,99393.59
2023-05-12T18:31:16.484Z,99400.25
2023-05-12T18:33:46.625Z,99396.59
2023-05-12T18:36:13.301Z,99401.78
2023-05-12T18:38:40.128Z,99399.50
2023-05-12T18:41:07.292Z,99404.53
2023-05-12T18:43:34.990Z,99400.53
2023-05-12T18:46:02.064Z,99401.31
2023-05-12T18:48:28.586Z,99411.97
2023-05-12T18:50:56.262Z,99416.91
2023-05-12T18:53:23.101Z,99409.22
2023-05-12T18:55:50.317Z,99410.44
2023-05-12T18:58:17.089Z,99415.72
2023-05-12T19:00:44.985Z,99414.34
2023-05-12T19:03:11.580Z,99414.88
2023-05-12T19:05:42.132Z,99420.84
2023-05-12T19:08:08.725Z,99427.56
2023-05-12T19:10:37.248Z,99424.34
2023-05-12T19:13:05.316Z,99430.31
2023-05-12T19:15:31.905Z,99427.81
2023-05-12T19:17:58.474Z,99436.25
2023-05-12T19:20:25.109Z,99438.09
2023-05-12T19:22:51.666Z,99426.94
2023-05-12T19:25:18.575Z,99441.47
2023-05-12T19:27:45.841Z,99430.34
2023-05-12T19:30:14.033Z,99442.13
2023-05-12T19:32:42.463Z,99445.03
2023-05-12T19:35:12.564Z,99449.56
2023-05-12T19:37:39.523Z,99448.53
2023-05-12T19:40:06.771Z,99454.91
2023-05-12T19:42:34.627Z,99457.13
2023-05-12T19:45:01.267Z,99468.81
2023-05-12T19:47:30.034Z,99465.59
2023-05-12T19:49:57.048Z,99466.59
2023-05-12T19:52:24.777Z,99475.97
2023-05-12T19:54:52.006Z,99474.34
2023-05-12T19:57:21.377Z,99474.72
2023-05-12T19:59:49.709Z,99489.09
2023-05-12T20:02:17.279Z,99483.50
2023-05-12T20:04:44.572Z,99487.44
2023-05-12T20:07:11.162Z,99476.78
2023-05-12T20:09:37.875Z,99477.63
2023-05-12T20:12:07.952Z,99493.31
2023-05-12T20:14:35.657Z,99486.84
2023-05-12T20:17:05.801Z,99488.22
2023-05-12T20:19:33.654Z,99494.94
2023-05-12T20:22:00.259Z,99488.41
2023-05-12T20:24:27.127Z,99494.81
2023-05-12T20:26:54.086Z,99494.00
2023-05-12T20:29:21.048Z,99498.69
2023-05-12T20:31:48.854Z,99502.81
2023-05-12T20:34:15.717Z,99493.13
2023-05-12T20:36:44.230Z,99506.00
2023-05-12T20:39:11.558Z,99502.25
2023-05-12T20:41:43.414Z,99502.53
2023-05-12T20:44:10.243Z,99507.38
2023-05-12T20:46:38.364Z,99510.59
2023-05-12T20:49:05.997Z,99517.31
2023-05-12T20:51:32.642Z,99513.31
2023-05-12T20:53:59.444Z,99523.78
2023-05-12T20:56:26.988Z,99513.81
2023-05-12T20:58:53.867Z,99523.69
2023-05-12T21:01:20.586Z,99517.41
2023-05-12T21:03:47.385Z,99517.50
2023-05-12T21:06:13.936Z,99513.44
2023-05-12T21:08:40.471Z,99515.84
2023-05-12T21:11:14.858Z,99514.84
2023-05-12T21:13:41.626Z,99515.41
2023-05-12T21:16:08.289Z,99517.31
2023-05-12T21:18:35.120Z,99525.38
2023-05-12T21:21:01.800Z,99527.41
2023-05-12T21:23:30.167Z,99521.28
2023-05-12T21:25:56.729Z,99519.00
2023-05-12T21:28:23.356Z,99526.22
2023-05-12T21:30:50.044Z,99523.38
2023-05-12T21:33:16.576Z,99525.69
2023-05-12T21:35:43.083Z,99522.50
2023-05-12T21:38:10.139Z,99530.94
2023-05-12T21:40:37.925Z,99527.41
2023-05-12T21:43:04.557Z,99524.47
2023-05-12T21:45:31.322Z,99527.31
2023-05-12T21:47:57.884Z,99519.59
2023-05-12T21:50:24.458Z,99519.28
2023-05-12T21:52:51.124Z,99523.78
2023-05-12T21:55:17.763Z,99519.53
2023-05-12T21:57:44.303Z,99517.63
2023-05-12T22:00:12.785Z,99521.09
2023-05-12T22:02:39.430Z,99518.16
2023-05-12T22:05:06.573Z,99518.34
2023-05-12T22:07:33.434Z,99515.66
2023-05-12T22:10:00.381Z,99514.28
2023-05-12T22:12:27.042Z,99525.22
2023-05-12T22:14:54.241Z,99520.53
2023-05-12T22:17:20.998Z,99525.69
2023-05-12T22:19:47.615Z,99525.28
2023-05-12T22:22:14.239Z,99524.13
2023-05-12T22:24:40.770Z,99518.94
2023-05-12T22:27:07.468Z,99527.16
2023-05-12T22:29:34.165Z,99518.56
2023-05-12T22:32:00.941Z,99522.38
2023-05-12T22:34:27.548Z,99520.19
2023-05-12T22:36:54.147Z,99515.91
2023-05-12T22:39:20.658Z,99520.19
2023-05-12T22:41:47.152Z,99509.34
2023-05-12T22:44:13.755Z,99513.53
2023-05-12T22:46:40.572Z,99518.13
2023-05-12T22:49:07.238Z,99525.75
2023-05-12T22:51:34.347Z,99514.28
2023-05-12T22:54:00.913Z,99521.78
2023-05-12T22:56:27.472Z,99518.72
2023-05-12T22:58:54.135Z,99514.28
2023-05-12T23:01:20.725Z,99516.34
2023-05-12T23:03:47.381Z,99527.81
2023-05-12T23:06:14.001Z,99518.16
2023-05-12T23:08:40.509Z,99517.13
2023-05-12T23:11:07.064Z,99522.81
2023-05-12T23:13:33.646Z,99514.59
2023-05-12T23:16:00.283Z,99525.69
2023-05-12T23:18:26.799Z,99517.31
2023-05-12T23:20:53.464Z,99519.06
2023-05-12T23:23:20.010Z,99524.38
2023-05-12T23:25:47.078Z,99524.97
2023-05-12T23:28:13.665Z,99522.75
2023-05-12T23:30:40.256Z,99531.41
2023-05-12T23:33:06.959Z,99524.72
2023-05-12T23:35:33.594Z,99515.84
2023-05-12T23:38:00.099Z,99511.66
2023-05-12T23:40:26.616Z,99519.97
2023-05-12T23:42:53.257Z,99513.25
2023-05-12T23:45:19.886Z,99517.06
2023-05-12T23:47:46.598Z,99509.69
2023-05-12T23:50:13.148Z,99513.94
2023-05-12T23:52:39.765Z,99518.34
2023-05-12T23:55:06.834Z,99516.38
2023-05-12T23:57:33.338Z,99510.59
2023-05-12T23:59:59.900Z,99519.38
